createdAt,value
2023-03-05T11:05:32.112Z,25.20
2023-03-05T11:06:32.054Z,26.70
2023-03-05T11:07:32.017Z,27.40
2023-03-05T11:08:31.986Z,28.30
2023-03-05T11:09:31.953Z,27.40
2023-03-05T11:10:31.920Z,27.80
2023-03-05T11:11:31.915Z,28.60
2023-03-05T11:12:31.857Z,27.90
2023-03-05T11:13:31.824Z,27.60
2023-03-05T11:14:31.795Z,28.20
2023-03-05T11:15:31.764Z,29.10
2023-03-05T11:16:31.739Z,28.40
2023-03-05T11:17:31.710Z,28.60
2023-03-05T11:18:31.678Z,28.80
2023-03-05T11:19:31.670Z,29.80
2023-03-05T11:20:31.622Z,27.20
2023-03-05T11:21:31.602Z,27.70
2023-03-05T11:22:31.556Z,26.80
2023-03-05T11:23:31.536Z,26.60
2023-03-05T11:24:31.495Z,28.10
2023-03-05T11:25:31.464Z,27.30
2023-03-05T11:26:31.440Z,27.00
2023-03-05T11:27:31.403Z,25.30
2023-03-05T11:28:33.556Z,26.10
2023-03-05T11:29:31.346Z,26.10
2023-03-05T11:30:31.532Z,28.30
2023-03-05T11:31:31.286Z,26.90
2023-03-05T11:32:31.312Z,27.60
2023-03-05T11:33:31.228Z,27.40
2023-03-05T11:34:31.199Z,26.40
2023-03-05T11:35:31.239Z,25.60
2023-03-05T11:36:31.142Z,26.60
2023-03-05T11:37:31.128Z,26.20
2023-03-05T11:38:31.390Z,26.10
2023-03-05T11:39:31.053Z,26.40
2023-03-05T11:40:31.027Z,25.60
2023-03-05T11:41:30.998Z,26.20
2023-03-05T11:42:30.969Z,26.00
2023-03-05T11:43:30.938Z,27.50
2023-03-05T11:44:30.911Z,26.00
2023-03-05T11:45:30.881Z,25.90
2023-03-05T11:46:30.923Z,24.80
2023-03-05T11:47:30.822Z,24.90
2023-03-05T11:48:30.797Z,25.70
2023-03-05T11:49:31.429Z,25.40
2023-03-05T11:50:30.738Z,23.40
2023-03-05T11:51:30.706Z,24.40
2023-03-05T11:52:30.680Z,24.80
2023-03-05T11:53:30.672Z,23.50
2023-03-05T11:54:30.628Z,24.70
2023-03-05T11:55:30.594Z,24.30
2023-03-05T11:56:30.580Z,24.50
2023-03-05T11:57:30.539Z,25.90
2023-03-05T11:58:30.517Z,23.60
2023-03-05T11:59:30.493Z,23.90
2023-03-05T12:00:30.456Z,25.00
2023-03-05T12:01:30.425Z,22.60
2023-03-05T12:02:30.409Z,22.80
2023-03-05T12:03:30.433Z,24.30
2023-03-05T12:04:30.346Z,23.50
2023-03-05T12:05:30.317Z,24.10
2023-03-05T12:06:30.294Z,25.00
2023-03-05T12:07:30.255Z,24.40
2023-03-05T12:08:30.228Z,23.50
2023-03-05T12:09:30.240Z,24.20
2023-03-05T12:10:30.179Z,23.90
2023-03-05T12:11:30.141Z,22.50
2023-03-05T12:12:30.119Z,23.00
2023-03-05T12:13:30.087Z,21.80
2023-03-05T12:14:30.058Z,21.30
2023-03-05T12:15:30.031Z,21.00
2023-03-05T12:16:30.137Z,21.20
2023-03-05T12:17:29.980Z,20.90
2023-03-05T12:18:29.971Z,20.90
2023-03-05T12:19:29.914Z,21.90
2023-03-05T12:20:29.945Z,21.90
2023-03-05T12:21:29.858Z,22.10
2023-03-05T12:22:29.832Z,20.70
2023-03-05T12:23:29.801Z,21.70
2023-03-05T12:24:29.775Z,22.60
2023-03-05T12:25:29.770Z,21.30
2023-03-05T12:26:29.718Z,22.10
2023-03-05T12:27:29.691Z,21.90
2023-03-05T12:28:29.663Z,21.70
2023-03-05T12:29:29.630Z,21.60
2023-03-05T12:30:29.609Z,21.90
2023-03-05T12:31:29.625Z,21.50
2023-03-05T12:32:29.694Z,21.00
2023-03-05T12:33:29.514Z,20.70
2023-03-05T12:34:29.489Z,21.50
2023-03-05T12:35:29.529Z,20.90
2023-03-05T12:36:29.426Z,22.20
2023-03-05T12:37:29.397Z,21.00
2023-03-05T12:38:29.370Z,22.00
2023-03-05T12:39:29.340Z,21.90
2023-03-05T12:40:29.315Z,22.20
2023-03-05T12:41:29.668Z,22.80
2023-03-05T12:42:29.253Z,22.20
2023-03-05T12:43:29.223Z,22.30
2023-03-05T12:44:29.196Z,22.10
2023-03-05T12:45:29.166Z,22.00
2023-03-05T12:46:29.232Z,21.50
2023-03-05T12:47:29.107Z,22.40
2023-03-05T12:48:29.114Z,22.70
2023-03-05T12:49:29.052Z,22.30
2023-03-05T12:50:29.097Z,22.20
2023-03-05T12:51:29.005Z,22.90
2023-03-05T12:52:28.963Z,22.30
2023-03-05T12:53:28.935Z,22.80
2023-03-05T12:54:28.944Z,20.40
2023-03-05T12:55:28.876Z,22.20
2023-03-05T12:56:28.853Z,20.30
2023-03-05T12:57:28.838Z,21.40
2023-03-05T12:58:28.813Z,21.90
2023-03-05T12:59:28.769Z,22.30
2023-03-05T13:00:28.807Z,22.60
2023-03-05T13:01:28.708Z,21.40
2023-03-05T13:02:28.691Z,22.50
2023-03-05T13:03:28.670Z,21.70
2023-03-05T13:04:28.625Z,22.20
2023-03-05T13:05:28.596Z,21.70
2023-03-05T13:06:28.563Z,22.50
2023-03-05T13:07:28.531Z,21.70
2023-03-05T13:08:28.507Z,22.70
2023-03-05T13:09:28.490Z,23.00
2023-03-05T13:10:28.449Z,23.80
2023-03-05T13:11:28.421Z,22.80
2023-03-05T13:12:28.398Z,23.10
2023-03-05T13:18:18.616Z,24.10
2023-03-05T13:20:32.972Z,23.00
2023-03-05T13:20:33.451Z,22.60
2023-03-05T13:21:33.448Z,22.80
2023-03-05T13:22:33.396Z,23.40
2023-03-05T13:24:04.749Z,22.00
2023-03-05T13:25:04.718Z,23.40
2023-03-05T13:26:04.690Z,21.80
2023-03-05T13:27:04.662Z,22.50
2023-03-05T13:28:04.631Z,23.30
2023-03-05T13:29:04.604Z,22.90
2023-03-05T13:30:04.578Z,22.80
2023-03-05T13:31:04.556Z,23.30
2023-03-05T13:32:04.568Z,22.50
2023-03-05T13:32:52.642Z,21.80
2023-03-05T13:33:52.629Z,21.70
2023-03-05T13:34:52.585Z,22.20
2023-03-05T13:35:54.098Z,21.30
2023-03-05T13:36:52.525Z,21.80
2023-03-05T13:37:52.511Z,22.00
2023-03-05T13:38:52.477Z,23.00
2023-03-05T13:39:52.446Z,22.30
2023-03-05T13:40:52.417Z,22.00
2023-03-05T13:41:52.385Z,21.10
2023-03-05T13:42:52.356Z,21.50
2023-03-05T13:43:52.337Z,20.90
2023-03-05T13:44:52.298Z,20.90
2023-03-05T13:45:52.331Z,22.10
2023-03-05T13:46:52.242Z,21.50
2023-03-05T13:47:52.214Z,22.20
2023-03-05T13:48:52.195Z,21.90
2023-03-05T13:49:52.177Z,22.10
2023-03-05T13:50:52.130Z,21.70
2023-03-05T13:51:52.099Z,21.60
2023-03-05T13:52:52.070Z,20.50
2023-03-05T13:53:52.042Z,21.20
2023-03-05T13:54:52.011Z,21.20
2023-03-05T13:55:51.987Z,21.80
2023-03-05T13:56:51.956Z,20.80
2023-03-05T13:57:51.929Z,21.70
2023-03-05T13:58:51.899Z,22.20
2023-03-05T13:59:51.873Z,21.60
2023-03-05T14:00:51.862Z,20.70
2023-03-05T14:01:51.816Z,21.40
2023-03-05T14:02:51.798Z,21.50
2023-03-05T14:03:51.760Z,20.80
2023-03-05T14:04:51.840Z,20.90
2023-03-05T14:05:51.716Z,20.20
2023-03-05T14:06:51.688Z,20.50
2023-03-05T14:07:51.650Z,21.70
2023-03-05T14:08:51.621Z,21.40
2023-03-05T14:09:51.589Z,20.10
2023-03-05T14:10:51.561Z,20.80
2023-03-05T14:11:51.533Z,21.90
2023-03-05T14:12:51.503Z,21.10
2023-03-05T14:13:51.477Z,21.10
2023-03-05T14:14:51.450Z,21.70
2023-03-05T14:15:51.422Z,22.00
2023-03-05T14:16:51.475Z,21.00
2023-03-05T14:17:51.374Z,20.10
2023-03-05T14:18:51.341Z,20.00
2023-03-05T14:19:51.313Z,21.60
2023-03-05T14:20:51.285Z,21.20
2023-03-05T14:21:51.276Z,21.80
2023-03-05T14:22:51.235Z,21.20
2023-03-05T14:23:51.205Z,23.20
2023-03-05T14:24:51.176Z,20.30
2023-03-05T14:25:51.150Z,22.20
2023-03-05T14:26:51.123Z,21.50
2023-03-05T14:27:51.098Z,22.10
2023-03-05T14:28:51.069Z,22.10
2023-03-05T14:29:51.041Z,21.80
2023-03-05T14:30:51.114Z,21.80
2023-03-05T14:31:50.987Z,21.40
2023-03-05T14:32:51.030Z,21.60
2023-03-05T14:33:50.939Z,21.20
2023-03-05T14:34:50.922Z,22.90
2023-03-05T14:35:50.957Z,21.70
2023-03-05T14:36:50.856Z,21.30
2023-03-05T14:37:50.847Z,20.60
2023-03-05T14:38:50.800Z,20.60
2023-03-05T14:39:50.784Z,22.10
2023-03-05T14:40:50.794Z,22.80
2023-03-05T14:41:50.722Z,22.10
2023-03-05T14:42:50.696Z,22.10
2023-03-05T14:43:50.681Z,22.00
2023-03-05T14:44:50.642Z,23.00
2023-03-05T14:45:50.646Z,22.10
2023-03-05T14:46:50.595Z,21.80
2023-03-05T14:47:50.566Z,21.30
2023-03-05T14:48:50.544Z,22.30
2023-03-05T14:49:50.515Z,21.80
2023-03-05T14:50:50.487Z,20.90
2023-03-05T14:51:50.462Z,21.50
2023-03-05T14:52:50.436Z,21.40
2023-03-05T14:53:50.437Z,22.30
2023-03-05T14:54:50.393Z,22.60
2023-03-05T14:55:50.384Z,21.40
2023-03-05T14:56:50.336Z,21.20
2023-03-05T14:57:50.314Z,21.30
2023-03-05T14:58:50.289Z,21.10
2023-03-05T14:59:50.266Z,21.40
2023-03-05T15:00:51.349Z,21.80
2023-03-05T15:01:50.267Z,21.30
2023-03-05T15:02:50.191Z,23.10
2023-03-05T15:03:50.169Z,21.80
2023-03-05T15:04:50.142Z,22.50
2023-03-05T15:05:50.125Z,21.50
2023-03-05T15:06:50.094Z,21.00
2023-03-05T15:07:50.069Z,22.20
2023-03-05T15:08:50.050Z,21.50
2023-03-05T15:09:50.045Z,21.40
2023-03-05T15:10:49.996Z,21.00
2023-03-05T15:11:49.980Z,21.30
2023-03-05T15:12:49.948Z,21.50
2023-03-05T15:13:49.928Z,21.20
2023-03-05T15:14:49.902Z,21.80
2023-03-05T15:15:49.921Z,22.20
2023-03-05T15:16:49.853Z,20.70
2023-03-05T15:17:49.831Z,21.30
2023-03-05T15:18:49.813Z,22.60
2023-03-05T15:19:49.785Z,22.30
2023-03-05T15:20:49.760Z,21.50
2023-03-05T15:21:49.739Z,21.20
2023-03-05T15:22:49.717Z,22.60
2023-03-05T15:23:49.691Z,22.50
2023-03-05T15:24:49.671Z,22.30
2023-03-05T15:25:49.918Z,22.80
2023-03-05T15:26:50.279Z,24.10
2023-03-05T15:27:49.599Z,21.90
2023-03-05T15:28:49.574Z,22.30
2023-03-05T15:29:49.553Z,22.00
2023-03-05T15:30:49.595Z,22.50
2023-03-05T15:31:49.506Z,22.20
2023-03-05T15:32:49.484Z,21.60
2023-03-05T15:33:49.460Z,20.40
2023-03-05T15:34:49.440Z,22.10
2023-03-05T15:35:49.473Z,22.00
2023-03-05T15:36:49.390Z,20.60
2023-03-05T15:37:49.371Z,20.50
2023-03-05T15:38:49.348Z,21.20
2023-03-05T15:39:49.327Z,21.00
2023-03-05T15:40:49.299Z,22.20
2023-03-05T15:41:49.294Z,22.60
2023-03-05T15:42:49.253Z,20.70
2023-03-05T15:43:49.231Z,20.90
2023-03-05T15:44:49.202Z,20.90
2023-03-05T15:45:49.178Z,20.80
2023-03-05T15:46:49.153Z,20.30
2023-03-05T15:47:49.131Z,21.00
2023-03-05T15:48:49.107Z,20.80
2023-03-05T15:49:49.085Z,20.10
2023-03-05T15:50:49.057Z,20.00
2023-03-05T15:51:49.031Z,20.70
2023-03-05T15:52:49.007Z,19.30
2023-03-05T15:53:48.985Z,20.20
2023-03-05T15:54:48.959Z,19.30
2023-03-05T15:55:48.932Z,19.90
2023-03-05T15:56:48.911Z,19.20
2023-03-05T15:57:48.922Z,20.10
2023-03-05T15:58:48.859Z,20.10
2023-03-05T15:59:48.837Z,20.30
2023-03-05T16:00:48.812Z,19.10
2023-03-05T16:01:49.023Z,19.70
2023-03-05T16:02:48.785Z,20.40
2023-03-05T16:03:48.737Z,20.00
2023-03-05T16:04:48.714Z,20.10
2023-03-05T16:05:48.688Z,20.00
2023-03-05T16:06:48.661Z,20.60
2023-03-05T16:07:50.240Z,19.80
2023-03-05T16:08:48.615Z,19.20
2023-03-05T16:09:48.593Z,19.90
2023-03-05T16:10:48.574Z,19.70
2023-03-05T16:11:48.541Z,19.70
2023-03-05T16:12:48.512Z,20.00
2023-03-05T16:13:48.509Z,19.20
2023-03-05T16:14:50.803Z,19.20
2023-03-05T16:15:48.474Z,19.90
2023-03-05T16:16:48.415Z,20.10
2023-03-05T16:17:48.388Z,20.00
2023-03-05T16:18:48.363Z,20.10
2023-03-05T16:19:48.337Z,19.60
2023-03-05T16:20:48.310Z,19.00
2023-03-05T16:21:48.309Z,20.90
2023-03-05T16:22:48.270Z,19.40
2023-03-05T16:23:48.233Z,19.80
2023-03-05T16:24:48.214Z,20.20
2023-03-05T16:25:48.185Z,19.50
2023-03-05T16:26:48.159Z,19.30
2023-03-05T16:27:48.134Z,19.60
2023-03-05T16:28:48.101Z,20.10
2023-03-05T16:29:48.112Z,20.30
2023-03-05T16:30:48.052Z,20.30
2023-03-05T16:31:48.069Z,20.90
2023-03-05T16:32:47.995Z,20.10
2023-03-05T16:33:47.972Z,20.50
2023-03-05T16:34:47.951Z,19.90
2023-03-05T16:35:47.974Z,19.90
2023-03-05T16:36:47.928Z,19.50
2023-03-05T16:37:47.863Z,19.60
2023-03-05T16:38:47.845Z,20.30
2023-03-05T16:39:47.815Z,19.60
2023-03-05T16:41:08.199Z,19.40
2023-03-05T16:41:47.755Z,19.80
2023-03-05T16:42:47.727Z,20.10
2023-03-05T16:43:47.704Z,20.40
2023-03-05T16:44:47.679Z,21.10
2023-03-05T16:45:47.670Z,20.50
2023-03-05T16:46:47.674Z,20.30
2023-03-05T16:47:47.597Z,19.70
2023-03-05T16:48:47.567Z,20.60
2023-03-05T16:49:47.533Z,21.20
2023-03-05T16:50:47.503Z,21.10
2023-03-05T16:51:47.491Z,20.80
2023-03-05T16:52:47.448Z,19.20
2023-03-05T16:53:47.431Z,20.10
2023-03-05T16:54:47.405Z,20.30
2023-03-05T16:55:47.364Z,19.70
2023-03-05T16:56:47.336Z,19.60
2023-03-05T16:57:47.309Z,19.40
2023-03-05T16:58:47.279Z,19.50
2023-03-05T16:59:47.253Z,18.40
2023-03-05T17:00:47.263Z,18.70
2023-03-05T17:01:47.212Z,20.10
2023-03-05T17:02:47.166Z,20.10
2023-03-05T17:03:47.212Z,20.20
2023-03-05T17:04:47.108Z,19.30
2023-03-05T17:05:47.082Z,19.90
2023-03-05T17:06:47.059Z,20.20
2023-03-05T17:07:47.029Z,19.50
2023-03-05T17:08:46.994Z,19.90
2023-03-05T17:09:46.965Z,18.60
2023-03-05T17:10:46.937Z,19.20
2023-03-05T17:11:46.907Z,18.80
2023-03-05T17:12:46.877Z,20.10
2023-03-05T17:13:48.877Z,19.30
2023-03-05T17:14:46.819Z,19.00
2023-03-05T17:15:46.795Z,19.60
2023-03-05T17:16:46.852Z,20.00
2023-03-05T17:17:46.752Z,19.00
2023-03-05T17:18:46.714Z,18.60
2023-03-05T17:19:46.682Z,18.30
2023-03-05T17:20:46.649Z,19.50
2023-03-05T17:21:46.623Z,19.80
2023-03-05T17:22:46.589Z,18.20
2023-03-05T17:23:46.560Z,19.60
2023-03-05T17:24:46.530Z,19.40
2023-03-05T17:25:46.503Z,19.60
2023-03-05T17:26:46.483Z,18.90
2023-03-05T17:27:46.442Z,19.30
2023-03-05T17:28:46.413Z,19.40
2023-03-05T17:29:46.387Z,20.10
2023-03-05T17:30:46.375Z,20.90
2023-03-05T17:31:46.410Z,19.50
2023-03-05T17:32:46.297Z,20.50
2023-03-05T17:33:46.293Z,19.80
2023-03-05T17:34:46.242Z,20.80
2023-03-05T17:35:46.243Z,20.10
2023-03-05T17:36:46.178Z,20.70
2023-03-05T17:37:46.150Z,19.90
2023-03-05T17:38:46.130Z,20.90
2023-03-05T17:39:46.090Z,21.40
2023-03-05T17:40:46.071Z,20.90
2023-03-05T17:41:46.038Z,21.80
2023-03-05T17:42:46.002Z,20.60
2023-03-05T17:43:45.974Z,21.80
2023-03-05T17:44:45.991Z,21.40
2023-03-05T17:45:45.950Z,21.50
2023-03-05T17:46:45.881Z,21.80
2023-03-05T17:47:45.850Z,21.10
2023-03-05T17:48:45.824Z,20.50
2023-03-05T17:49:45.814Z,20.20
2023-03-05T17:50:45.762Z,20.60
2023-03-05T17:51:45.731Z,20.50
2023-03-05T17:52:45.707Z,20.80
2023-03-05T17:53:45.670Z,21.80
2023-03-05T17:54:45.641Z,21.60
2023-03-05T17:55:45.610Z,21.10
2023-03-05T17:56:45.580Z,21.40
2023-03-05T17:57:45.549Z,22.10
2023-03-05T17:58:45.529Z,20.50
2023-03-05T17:59:45.488Z,20.60
2023-03-05T18:00:45.524Z,19.50
2023-03-05T18:01:45.482Z,20.50
2023-03-05T18:02:45.400Z,19.60
2023-03-05T18:03:45.367Z,20.30
2023-03-05T18:04:45.337Z,20.30
2023-03-05T18:05:45.325Z,19.70
2023-03-05T18:06:45.277Z,19.30
2023-03-05T18:07:45.244Z,18.20
2023-03-05T18:08:45.225Z,18.80
2023-03-05T18:09:45.185Z,19.60
2023-03-05T18:10:45.170Z,19.60
2023-03-05T18:11:45.125Z,17.80
2023-03-05T18:12:45.101Z,17.80
2023-03-05T18:13:45.061Z,16.90
2023-03-05T18:14:45.030Z,17.50
2023-03-05T18:15:44.999Z,18.50
2023-03-05T18:16:45.025Z,17.70
2023-03-05T18:17:44.940Z,18.30
2023-03-05T18:18:44.908Z,17.90
2023-03-05T18:19:44.876Z,16.20
2023-03-05T18:20:44.849Z,15.50
2023-03-05T18:21:44.838Z,14.80
2023-03-05T18:22:44.786Z,13.10
2023-03-05T18:23:44.751Z,11.90
2023-03-05T18:24:44.726Z,11.50
2023-03-05T18:25:44.696Z,12.10
2023-03-05T18:26:44.660Z,10.80
2023-03-05T18:27:44.636Z,10.80
2023-03-05T18:28:44.631Z,11.20
2023-03-05T18:29:44.581Z,10.50
2023-03-05T18:30:44.601Z,10.50
2023-03-05T18:31:44.501Z,9.30
2023-03-05T18:32:44.469Z,9.60
2023-03-05T18:33:44.443Z,8.90
2023-03-05T18:34:44.408Z,9.40
2023-03-05T18:35:44.425Z,10.10
2023-03-05T18:36:44.344Z,8.90
2023-03-05T18:37:44.338Z,9.60
2023-03-05T18:38:44.282Z,9.20
2023-03-05T18:39:44.271Z,9.40
2023-03-05T18:40:44.218Z,9.70
2023-03-05T18:41:44.188Z,9.50
2023-03-05T18:42:44.160Z,9.80
2023-03-05T18:43:44.126Z,9.60
2023-03-05T18:44:44.094Z,9.40
2023-03-05T18:45:44.081Z,9.50
2023-03-05T18:46:44.031Z,9.60
2023-03-05T18:47:44.000Z,9.70
2023-03-05T18:48:43.973Z,9.20
2023-03-05T18:49:43.937Z,9.00
2023-03-05T18:50:43.906Z,8.90
2023-03-05T18:51:43.880Z,9.60
2023-03-05T18:52:43.841Z,8.80
2023-03-05T18:53:43.835Z,8.20
2023-03-05T18:54:43.780Z,8.70
2023-03-05T18:55:43.749Z,8.90
2023-03-05T18:56:43.721Z,8.70
2023-03-05T18:57:43.689Z,8.60
2023-03-05T18:58:43.654Z,9.00
2023-03-05T18:59:43.623Z,8.90
2023-03-05T19:00:43.591Z,8.30
2023-03-05T19:01:43.596Z,8.60
2023-03-05T19:02:43.528Z,9.00
2023-03-05T19:03:43.496Z,8.20
2023-03-05T19:04:43.467Z,9.00
2023-03-05T19:05:43.548Z,8.00
2023-03-05T19:06:43.435Z,8.60
2023-03-05T19:07:43.396Z,8.40
2023-03-05T19:08:43.341Z,7.70
2023-03-05T19:09:43.326Z,8.00
2023-03-05T19:10:43.282Z,8.70
2023-03-05T19:11:43.247Z,7.90
2023-03-05T19:12:43.216Z,8.20
2023-03-05T19:13:43.183Z,8.90
2023-03-05T19:14:43.153Z,8.40
2023-03-05T19:15:43.138Z,8.80
2023-03-05T19:16:43.092Z,8.30
2023-03-05T19:17:43.068Z,8.20
2023-03-05T19:18:43.036Z,8.30
2023-03-05T19:19:42.995Z,8.50
2023-03-05T19:20:42.965Z,8.20
2023-03-05T19:21:42.936Z,8.70
2023-03-05T19:22:42.905Z,8.40
2023-03-05T19:23:42.866Z,8.30
2023-03-05T19:24:42.836Z,8.00
2023-03-05T19:25:42.823Z,8.30
2023-03-05T19:26:42.774Z,8.00
2023-03-05T19:27:42.740Z,7.70
2023-03-05T19:28:42.714Z,7.60
2023-03-05T19:29:42.677Z,7.60
2023-03-05T19:30:42.698Z,8.40
2023-03-05T19:31:42.681Z,7.90
2023-03-05T19:32:42.670Z,8.00
2023-03-05T19:33:42.548Z,8.20
2023-03-05T19:34:42.520Z,7.40
2023-03-05T19:35:42.536Z,7.60
2023-03-05T19:36:42.452Z,7.80
2023-03-05T19:37:42.456Z,7.00
2023-03-05T19:38:42.401Z,7.60
2023-03-05T19:39:42.356Z,7.20
2023-03-05T19:40:42.326Z,7.80
2023-03-05T19:41:42.321Z,7.50
2023-03-05T19:42:42.265Z,7.20
2023-03-05T19:43:42.242Z,7.90
2023-03-05T19:44:42.203Z,7.50
2023-03-05T19:45:42.164Z,7.30
2023-03-05T19:46:42.323Z,7.80
2023-03-05T19:47:42.104Z,7.20
2023-03-05T19:48:42.069Z,6.90
2023-03-05T19:49:42.039Z,7.10
2023-03-05T19:50:42.006Z,7.20
2023-03-05T19:51:41.973Z,7.60
2023-03-05T19:52:41.944Z,8.10
2023-03-05T19:53:41.911Z,8.30
2023-03-05T19:54:41.877Z,8.40
2023-03-05T19:55:41.845Z,11.60
2023-03-05T19:56:41.826Z,10.30
2023-03-05T19:57:41.800Z,8.80
2023-03-05T19:58:41.749Z,8.10
2023-03-05T19:59:41.717Z,8.30
2023-03-05T20:00:41.693Z,8.20
2023-03-05T20:01:41.675Z,7.60
2023-03-05T20:02:41.633Z,7.30
2023-03-05T20:03:41.589Z,7.70
2023-03-05T20:04:41.556Z,7.50
2023-03-05T20:05:41.523Z,7.70
2023-03-05T20:06:41.492Z,7.60
2023-03-05T20:07:41.457Z,7.60
2023-03-05T20:08:41.433Z,7.60
2023-03-05T20:09:41.433Z,7.50
2023-03-05T20:10:41.367Z,7.40
2023-03-05T20:11:41.338Z,7.60
2023-03-05T20:12:41.303Z,7.60
2023-03-05T20:13:41.289Z,7.50
2023-03-05T20:14:41.248Z,7.20
2023-03-05T20:15:41.206Z,7.70
2023-03-05T20:16:41.179Z,7.00
2023-03-05T20:17:41.141Z,7.20
2023-03-05T20:18:41.112Z,7.90
2023-03-05T20:19:41.077Z,7.60
2023-03-05T20:20:41.047Z,7.40
2023-03-05T20:21:41.028Z,7.70
2023-03-05T20:22:40.984Z,7.50
2023-03-05T20:23:40.949Z,8.10
2023-03-05T20:24:40.925Z,7.40
2023-03-05T20:25:40.885Z,7.70
2023-03-05T20:26:40.861Z,7.80
2023-03-05T20:27:40.825Z,8.00
2023-03-05T20:28:40.789Z,7.10
2023-03-05T20:29:40.775Z,7.60
2023-03-05T20:30:40.727Z,7.30
2023-03-05T20:31:40.821Z,7.70
2023-03-05T20:32:40.674Z,7.40
2023-03-05T20:33:40.630Z,6.90
2023-03-05T20:34:40.600Z,7.10
2023-03-05T20:35:40.586Z,7.00
2023-03-05T20:36:40.531Z,8.10
2023-03-05T20:37:40.497Z,7.60
2023-03-05T20:38:40.467Z,7.90
2023-03-05T20:39:40.433Z,7.90
2023-03-05T20:40:40.401Z,7.40
2023-03-05T20:41:40.378Z,7.40
2023-03-05T20:42:40.338Z,7.00
2023-03-05T20:43:40.303Z,7.70
2023-03-05T20:44:40.273Z,7.80
2023-03-05T20:45:40.261Z,7.70
2023-03-05T20:46:40.254Z,7.60
2023-03-05T20:47:40.185Z,7.80
2023-03-05T20:48:40.144Z,7.40
2023-03-05T20:49:40.111Z,6.90
2023-03-05T20:50:40.079Z,7.30
2023-03-05T20:51:40.059Z,8.00
2023-03-05T20:52:40.018Z,7.80
2023-03-05T20:53:39.980Z,7.30
2023-03-05T20:54:39.987Z,7.10
2023-03-05T20:55:39.920Z,7.30
2023-03-05T20:56:39.906Z,7.60
2023-03-05T20:57:39.850Z,7.80
2023-03-05T20:58:39.821Z,7.40
2023-03-05T20:59:39.787Z,7.90
2023-03-05T21:00:39.767Z,7.90
2023-03-05T21:01:39.860Z,7.50
2023-03-05T21:02:39.690Z,7.70
2023-03-05T21:03:39.654Z,7.70
2023-03-05T21:04:39.626Z,7.00
2023-03-05T21:05:39.612Z,7.50
2023-03-05T21:06:39.570Z,7.90
2023-03-05T21:07:39.525Z,7.30
2023-03-05T21:08:39.493Z,7.40
2023-03-05T21:09:39.459Z,7.70
2023-03-05T21:10:39.436Z,8.50
2023-03-05T21:11:39.397Z,7.60
2023-03-05T21:12:39.363Z,8.10
2023-03-05T21:13:39.331Z,7.80
2023-03-05T21:14:39.298Z,7.60
2023-03-05T21:15:39.264Z,7.20
2023-03-05T21:16:39.334Z,7.70
2023-03-05T21:17:39.215Z,7.70
2023-03-05T21:18:39.166Z,7.90
2023-03-05T21:19:39.135Z,7.60
2023-03-05T21:20:39.101Z,7.70
2023-03-05T21:21:39.130Z,7.60
2023-03-05T21:22:39.032Z,8.20
2023-03-05T21:23:38.999Z,7.10
2023-03-05T21:24:38.968Z,7.70
2023-03-05T21:25:38.972Z,7.70
2023-03-05T21:26:38.903Z,7.60
2023-03-05T21:27:38.864Z,7.50
2023-03-05T21:28:38.833Z,8.00
2023-03-05T21:29:38.800Z,7.90
2023-03-05T21:30:38.769Z,7.50
2023-03-05T21:31:38.954Z,7.70
2023-03-05T21:32:38.777Z,7.70
2023-03-05T21:33:38.691Z,7.40
2023-03-05T21:34:38.634Z,6.90
2023-03-05T21:35:38.618Z,7.30
2023-03-05T21:36:38.574Z,6.90
2023-03-05T21:37:38.532Z,7.20
2023-03-05T21:38:38.501Z,7.50
2023-03-05T21:39:38.475Z,7.90
2023-03-05T21:40:38.433Z,7.30
2023-03-05T21:41:38.400Z,7.80
2023-03-05T21:42:38.367Z,6.90
2023-03-05T21:43:38.336Z,7.40
2023-03-05T21:44:38.300Z,7.20
2023-03-05T21:45:38.363Z,8.10
2023-03-05T21:46:38.235Z,8.00
2023-03-05T21:47:38.201Z,7.40
2023-03-05T21:48:38.176Z,7.80
2023-03-05T21:49:38.152Z,7.50
2023-03-05T21:50:38.105Z,8.00
2023-03-05T21:51:38.066Z,7.70
2023-03-05T21:52:38.034Z,7.80
2023-03-05T21:53:38.004Z,7.80
2023-03-05T21:54:37.986Z,7.40
2023-03-05T21:55:37.932Z,8.10
2023-03-05T21:56:37.905Z,7.90
2023-03-05T21:57:37.863Z,8.00
2023-03-05T21:58:37.839Z,7.40
2023-03-05T21:59:37.794Z,7.90
2023-03-05T22:00:37.765Z,7.50
2023-03-05T22:01:37.734Z,7.60
2023-03-05T22:02:37.694Z,7.40
2023-03-05T22:03:37.699Z,7.20
2023-03-05T22:04:37.628Z,8.00
2023-03-05T22:05:37.614Z,8.20
2023-03-05T22:06:37.564Z,7.80
2023-03-05T22:07:37.537Z,7.90
2023-03-05T22:08:37.494Z,8.30
2023-03-05T22:09:37.457Z,7.90
2023-03-05T22:10:37.427Z,7.40
2023-03-05T22:11:37.414Z,7.80
2023-03-05T22:12:37.359Z,7.90
2023-03-05T22:13:37.331Z,8.00
2023-03-05T22:14:37.337Z,7.60
2023-03-05T22:15:37.260Z,8.10
2023-03-05T22:16:37.244Z,7.90
2023-03-05T22:17:37.195Z,7.30
2023-03-05T22:18:37.157Z,8.00
2023-03-05T22:19:37.127Z,7.20
2023-03-05T22:20:37.093Z,7.80
2023-03-05T22:21:37.080Z,7.90
2023-03-05T22:22:37.028Z,7.60
2023-03-05T22:23:36.995Z,7.80
2023-03-05T22:24:36.961Z,7.90
2023-03-05T22:25:36.929Z,7.90
2023-03-05T22:26:36.899Z,7.50
2023-03-05T22:27:36.868Z,8.00
2023-03-05T22:28:36.829Z,7.60
2023-03-05T22:29:36.799Z,7.70
2023-03-05T22:30:36.791Z,8.40
2023-03-05T22:31:36.733Z,8.10
2023-03-05T22:32:36.730Z,8.30
2023-03-05T22:33:36.674Z,8.10
2023-03-05T22:34:36.632Z,8.10
2023-03-05T22:35:36.634Z,8.30
2023-03-05T22:36:36.572Z,8.10
2023-03-05T22:37:36.570Z,7.80
2023-03-05T22:38:36.501Z,8.20
2023-03-05T22:39:36.483Z,7.70
2023-03-05T22:40:36.434Z,7.70
2023-03-05T22:41:36.403Z,8.00
2023-03-05T22:42:36.371Z,7.50
2023-03-05T22:43:36.339Z,8.00
2023-03-05T22:44:36.306Z,8.10
2023-03-05T22:45:36.274Z,7.50
2023-03-05T22:46:36.241Z,7.70
2023-03-05T22:47:36.210Z,7.80
2023-03-05T22:48:36.174Z,7.80
2023-03-05T22:49:36.149Z,7.90
2023-03-05T22:50:36.108Z,7.70
2023-03-05T22:51:36.077Z,7.90
2023-03-05T22:52:36.044Z,7.80
2023-03-05T22:53:36.030Z,7.70
2023-03-05T22:54:35.980Z,7.80
2023-03-05T22:55:35.945Z,7.70
2023-03-05T22:56:35.920Z,7.70
2023-03-05T22:57:35.883Z,8.10
2023-03-05T22:58:35.849Z,7.60
2023-03-05T22:59:35.824Z,7.70
2023-03-05T23:00:35.798Z,8.00
2023-03-05T23:01:35.754Z,7.30
2023-03-05T23:02:35.720Z,7.70
2023-03-05T23:03:35.724Z,7.80
2023-03-05T23:04:35.656Z,7.70
2023-03-05T23:05:35.626Z,8.20
2023-03-05T23:06:35.594Z,8.00
2023-03-05T23:07:35.561Z,7.30
2023-03-05T23:08:35.529Z,7.80
2023-03-05T23:09:35.519Z,7.70
2023-03-05T23:10:35.467Z,7.80
2023-03-05T23:11:35.435Z,7.50
2023-03-05T23:12:35.400Z,7.40
2023-03-05T23:13:35.370Z,7.80
2023-03-05T23:14:35.358Z,7.80
2023-03-05T23:15:35.338Z,7.60
2023-03-05T23:16:35.283Z,7.60
2023-03-05T23:17:35.245Z,7.60
2023-03-05T23:18:35.209Z,7.70
2023-03-05T23:19:35.176Z,7.50
2023-03-05T23:20:35.148Z,8.10
2023-03-05T23:21:35.112Z,8.10
2023-03-05T23:22:35.096Z,8.00
2023-03-05T23:23:35.075Z,7.90
2023-03-05T23:24:35.016Z,8.30
2023-03-05T23:25:35.006Z,7.90
2023-03-05T23:26:34.951Z,8.50
2023-03-05T23:27:34.919Z,7.70
2023-03-05T23:28:34.885Z,8.30
2023-03-05T23:29:34.853Z,7.50
2023-03-05T23:30:34.822Z,7.90
2023-03-05T23:31:34.828Z,7.20
2023-03-05T23:32:34.785Z,8.40
2023-03-05T23:33:34.723Z,8.60
2023-03-05T23:34:34.690Z,7.90
2023-03-05T23:35:34.722Z,8.00
2023-03-05T23:36:34.621Z,8.00
2023-03-05T23:37:34.590Z,8.30
2023-03-05T23:38:34.555Z,8.20
2023-03-05T23:39:34.521Z,8.20
2023-03-05T23:40:34.489Z,8.50
2023-03-05T23:41:34.477Z,8.20
2023-03-05T23:42:34.427Z,8.00
2023-03-05T23:43:34.389Z,8.20
2023-03-05T23:44:34.355Z,8.20
2023-03-05T23:45:34.322Z,8.00
2023-03-05T23:46:34.372Z,8.10
2023-03-05T23:47:34.257Z,8.00
2023-03-05T23:48:34.227Z,8.50
2023-03-05T23:49:34.195Z,8.50
2023-03-05T23:50:34.156Z,8.70
2023-03-05T23:51:34.154Z,7.90
2023-03-05T23:52:34.099Z,9.00
2023-03-05T23:53:34.061Z,8.40
2023-03-05T23:54:34.029Z,8.10
2023-03-05T23:55:34.001Z,8.80
2023-03-05T23:56:33.962Z,8.40
2023-03-05T23:57:33.952Z,8.80
2023-03-05T23:58:33.903Z,8.10
2023-03-05T23:59:33.866Z,8.20
